KLM71V EHAM-LSGG
Flight info
| Callsign | KLM71V |
|---|---|
| Flight time | 1h 14m |
| Altitude | 35000 |
| Route | EDUPO Z739 MISGO DCT ASBON DCT TUSUK DCT KRH/N0453F340 DCT NATOR/N0456F350 DCT LUTIX DCT BENOT |
| Aircraft | B738/M-SDE2E3FGHIRWXY/LB1 |
Departure
| Time | 2026-05-06 15:31 |
|---|---|
| Airport | Amsterdam Airport Schiphol (EHAM) |
Arrival
| Time | 2026-05-06 16:45 |
|---|---|
| Airport | Geneva International Airport (LSGG) |
| Time | Latitude | Longitude | Altitude | Speed | Heading |
|---|---|---|---|---|---|
| 2026-05-06 15:11 | 52.30575 | 4.76696 | -2 ft | 0 kts | 215° |
| 2026-05-06 15:21 | 52.30586 | 4.76709 | -2 ft | 4 kts | 215° |
| 2026-05-06 15:21 | 52.30607 | 4.76733 | -2 ft | 2 kts | 215° |
| 2026-05-06 15:21 | 52.30625 | 4.76754 | -2 ft | 4 kts | 222° |
| 2026-05-06 15:22 | 52.30635 | 4.76770 | -2 ft | 3 kts | 304° |
| 2026-05-06 15:22 | 52.30622 | 4.76801 | -2 ft | 2 kts | 304° |
| 2026-05-06 15:22 | 52.30622 | 4.76802 | -2 ft | 1 kts | 304° |
| 2026-05-06 15:25 | 52.30630 | 4.76787 | -2 ft | 5 kts | 311° |
| 2026-05-06 15:25 | 52.30676 | 4.76736 | -2 ft | 10 kts | 345° |
| 2026-05-06 15:25 | 52.30709 | 4.76810 | -2 ft | 13 kts | 120° |
| 2026-05-06 15:25 | 52.30622 | 4.76864 | -2 ft | 14 kts | 174° |
| 2026-05-06 15:26 | 52.30540 | 4.76936 | -2 ft | 13 kts | 148° |
| 2026-05-06 15:26 | 52.30460 | 4.76949 | -2 ft | 13 kts | 224° |
| 2026-05-06 15:26 | 52.30408 | 4.76818 | -2 ft | 16 kts | 238° |
| 2026-05-06 15:26 | 52.30341 | 4.76642 | -2 ft | 21 kts | 238° |
| 2026-05-06 15:27 | 52.30254 | 4.76415 | -2 ft | 26 kts | 238° |
| 2026-05-06 15:27 | 52.30156 | 4.76160 | -2 ft | 26 kts | 238° |
| 2026-05-06 15:27 | 52.30064 | 4.75917 | -2 ft | 24 kts | 237° |
| 2026-05-06 15:27 | 52.29977 | 4.75692 | -2 ft | 23 kts | 238° |
| 2026-05-06 15:28 | 52.29894 | 4.75475 | -2 ft | 22 kts | 238° |
| 2026-05-06 15:28 | 52.29836 | 4.75251 | -2 ft | 22 kts | 278° |
| 2026-05-06 15:28 | 52.29919 | 4.75056 | -2 ft | 21 kts | 311° |
| 2026-05-06 15:28 | 52.30019 | 4.74868 | -2 ft | 24 kts | 311° |
| 2026-05-06 15:29 | 52.30131 | 4.74658 | 8 ft | 25 kts | 311° |
| 2026-05-06 15:29 | 52.30241 | 4.74455 | 11 ft | 23 kts | 311° |
| 2026-05-06 15:29 | 52.30347 | 4.74258 | -2 ft | 20 kts | 310° |
| 2026-05-06 15:29 | 52.30338 | 4.74066 | -2 ft | 19 kts | 225° |
| 2026-05-06 15:30 | 52.30238 | 4.73932 | -2 ft | 18 kts | 217° |
| 2026-05-06 15:30 | 52.30191 | 4.73782 | -3 ft | 13 kts | 296° |
| 2026-05-06 15:30 | 52.30276 | 4.73745 | -5 ft | 13 kts | 1° |
| 2026-05-06 15:30 | 52.30402 | 4.73756 | -4 ft | 39 kts | 3° |
| 2026-05-06 15:31 | 52.30917 | 4.73805 | -2 ft | 108 kts | 3° |
| 2026-05-06 15:31 | 52.31870 | 4.73893 | 21 ft | 162 kts | 3° |
| 2026-05-06 15:31 | 52.33026 | 4.73966 | 634 ft | 168 kts | 3° |
| 2026-05-06 15:32 | 52.35306 | 4.75190 | 2114 ft | 173 kts | 25° |
| 2026-05-06 15:32 | 52.36483 | 4.76033 | 2498 ft | 198 kts | 24° |
| 2026-05-06 15:32 | 52.37796 | 4.76967 | 2814 ft | 214 kts | 29° |
| 2026-05-06 15:32 | 52.38970 | 4.78608 | 3083 ft | 233 kts | 47° |
| 2026-05-06 15:33 | 52.40124 | 4.80642 | 3466 ft | 251 kts | 46° |
| 2026-05-06 15:33 | 52.41337 | 4.82752 | 4204 ft | 256 kts | 47° |
| 2026-05-06 15:33 | 52.42225 | 4.85262 | 4972 ft | 260 kts | 75° |
| 2026-05-06 15:33 | 52.42458 | 4.88223 | 5666 ft | 263 kts | 87° |
| 2026-05-06 15:34 | 52.42459 | 4.91266 | 6399 ft | 269 kts | 89° |
| 2026-05-06 15:34 | 52.42446 | 4.94342 | 7159 ft | 272 kts | 89° |
| 2026-05-06 15:34 | 52.42276 | 4.97450 | 7849 ft | 279 kts | 106° |
| 2026-05-06 15:34 | 52.41261 | 5.00161 | 8557 ft | 284 kts | 134° |
| 2026-05-06 15:35 | 52.39717 | 5.02209 | 9289 ft | 288 kts | 144° |
| 2026-05-06 15:35 | 52.38049 | 5.04073 | 9962 ft | 292 kts | 145° |
| 2026-05-06 15:35 | 52.36329 | 5.05985 | 10335 ft | 310 kts | 145° |
| 2026-05-06 15:35 | 52.34493 | 5.08063 | 10511 ft | 332 kts | 144° |
| 2026-05-06 15:36 | 52.32632 | 5.10457 | 10717 ft | 350 kts | 135° |
| 2026-05-06 15:36 | 52.30967 | 5.13436 | 11224 ft | 358 kts | 130° |
| 2026-05-06 15:36 | 52.29354 | 5.16555 | 11899 ft | 361 kts | 130° |
| 2026-05-06 15:36 | 52.27710 | 5.19673 | 12605 ft | 363 kts | 131° |
| 2026-05-06 15:37 | 52.26024 | 5.22776 | 13276 ft | 367 kts | 131° |
| 2026-05-06 15:37 | 52.24315 | 5.25892 | 13943 ft | 371 kts | 131° |
| 2026-05-06 15:37 | 52.22729 | 5.29166 | 14605 ft | 374 kts | 126° |
| 2026-05-06 15:37 | 52.21226 | 5.32660 | 15268 ft | 378 kts | 124° |
| 2026-05-06 15:38 | 52.19739 | 5.36214 | 15918 ft | 382 kts | 124° |
| 2026-05-06 15:38 | 52.18213 | 5.39847 | 16566 ft | 385 kts | 124° |
| 2026-05-06 15:38 | 52.17200 | 5.42229 | 16988 ft | 387 kts | 125° |
| 2026-05-06 15:38 | 52.15137 | 5.47018 | 17800 ft | 392 kts | 126° |
| 2026-05-06 15:39 | 52.13552 | 5.50662 | 18381 ft | 396 kts | 126° |
| 2026-05-06 15:39 | 52.11948 | 5.54332 | 18950 ft | 400 kts | 126° |
| 2026-05-06 15:39 | 52.10854 | 5.56832 | 19353 ft | 402 kts | 126° |
| 2026-05-06 15:39 | 52.09226 | 5.60546 | 19917 ft | 405 kts | 126° |
| 2026-05-06 15:40 | 52.07584 | 5.64287 | 20453 ft | 408 kts | 126° |
| 2026-05-06 15:40 | 52.05358 | 5.69228 | 21121 ft | 412 kts | 129° |
| 2026-05-06 15:40 | 52.04111 | 5.71637 | 21465 ft | 414 kts | 131° |
| 2026-05-06 15:40 | 52.02183 | 5.75148 | 21979 ft | 417 kts | 132° |
| 2026-05-06 15:41 | 52.00248 | 5.78667 | 22463 ft | 419 kts | 131° |
| 2026-05-06 15:41 | 51.98317 | 5.82239 | 22932 ft | 422 kts | 131° |
| 2026-05-06 15:41 | 51.96391 | 5.85837 | 23378 ft | 425 kts | 131° |
| 2026-05-06 15:41 | 51.94443 | 5.89475 | 23817 ft | 428 kts | 131° |
| 2026-05-06 15:42 | 51.92483 | 5.93124 | 24252 ft | 430 kts | 131° |
| 2026-05-06 15:42 | 51.90508 | 5.96795 | 24684 ft | 433 kts | 131° |
| 2026-05-06 15:42 | 51.88529 | 6.00472 | 25129 ft | 434 kts | 131° |
| 2026-05-06 15:42 | 51.86537 | 6.04162 | 25528 ft | 436 kts | 131° |
| 2026-05-06 15:43 | 51.84532 | 6.07866 | 25926 ft | 438 kts | 131° |
| 2026-05-06 15:43 | 51.82512 | 6.11567 | 26314 ft | 440 kts | 132° |
| 2026-05-06 15:43 | 51.80479 | 6.15281 | 26687 ft | 442 kts | 132° |
| 2026-05-06 15:43 | 51.78439 | 6.19004 | 27054 ft | 444 kts | 132° |
| 2026-05-06 15:44 | 51.76392 | 6.22738 | 27403 ft | 445 kts | 132° |
| 2026-05-06 15:44 | 51.74337 | 6.26489 | 27733 ft | 447 kts | 132° |
| 2026-05-06 15:44 | 51.72304 | 6.30201 | 28056 ft | 449 kts | 132° |
| 2026-05-06 15:44 | 51.70232 | 6.33981 | 28377 ft | 450 kts | 132° |
| 2026-05-06 15:45 | 51.68157 | 6.37763 | 28701 ft | 452 kts | 132° |
| 2026-05-06 15:45 | 51.66070 | 6.41560 | 29001 ft | 453 kts | 132° |
| 2026-05-06 15:45 | 51.63975 | 6.45361 | 29295 ft | 454 kts | 132° |
| 2026-05-06 15:45 | 51.61877 | 6.49161 | 29659 ft | 454 kts | 132° |
| 2026-05-06 15:46 | 51.59784 | 6.52947 | 30093 ft | 451 kts | 132° |
| 2026-05-06 15:46 | 51.57709 | 6.56696 | 30530 ft | 449 kts | 132° |
| 2026-05-06 15:46 | 51.55631 | 6.60445 | 30840 ft | 449 kts | 132° |
| 2026-05-06 15:46 | 51.53548 | 6.64199 | 31097 ft | 450 kts | 133° |
| 2026-05-06 15:47 | 51.51462 | 6.67955 | 31397 ft | 451 kts | 133° |
| 2026-05-06 15:47 | 51.49376 | 6.71704 | 31739 ft | 450 kts | 133° |
| 2026-05-06 15:47 | 51.47296 | 6.75438 | 32069 ft | 449 kts | 133° |
| 2026-05-06 15:47 | 51.45215 | 6.79169 | 32337 ft | 450 kts | 133° |
| 2026-05-06 15:48 | 51.43124 | 6.82912 | 32590 ft | 450 kts | 133° |
| 2026-05-06 15:48 | 51.40998 | 6.86577 | 32873 ft | 449 kts | 138° |
| 2026-05-06 15:48 | 51.38587 | 6.89740 | 33171 ft | 447 kts | 148° |
| 2026-05-06 15:48 | 51.35961 | 6.92405 | 33450 ft | 446 kts | 149° |
| 2026-05-06 15:49 | 51.33319 | 6.95002 | 33705 ft | 446 kts | 150° |
| 2026-05-06 15:49 | 51.30667 | 6.97597 | 33936 ft | 447 kts | 150° |
| 2026-05-06 15:49 | 51.28024 | 7.00197 | 34224 ft | 446 kts | 149° |
| 2026-05-06 15:49 | 51.25389 | 7.02808 | 34495 ft | 446 kts | 149° |
| 2026-05-06 15:50 | 51.22755 | 7.05434 | 34737 ft | 446 kts | 149° |
| 2026-05-06 15:50 | 51.20122 | 7.08062 | 34864 ft | 449 kts | 149° |
| 2026-05-06 15:50 | 51.14804 | 7.13370 | 34859 ft | 451 kts | 149° |
| 2026-05-06 15:51 | 51.09505 | 7.18650 | 34850 ft | 446 kts | 149° |
| 2026-05-06 15:51 | 51.04257 | 7.23862 | 34853 ft | 444 kts | 149° |
| 2026-05-06 15:52 | 50.99022 | 7.29045 | 34854 ft | 443 kts | 149° |
| 2026-05-06 15:52 | 50.93826 | 7.34176 | 34850 ft | 443 kts | 150° |
| 2026-05-06 15:53 | 50.88597 | 7.39327 | 34855 ft | 443 kts | 150° |
| 2026-05-06 15:53 | 50.83319 | 7.44512 | 34855 ft | 444 kts | 150° |
| 2026-05-06 15:54 | 50.78105 | 7.49622 | 34851 ft | 445 kts | 150° |
| 2026-05-06 15:54 | 50.72834 | 7.54774 | 34841 ft | 446 kts | 150° |
| 2026-05-06 15:55 | 50.67606 | 7.60069 | 34832 ft | 447 kts | 148° |
| 2026-05-06 15:55 | 50.62416 | 7.65492 | 34831 ft | 447 kts | 148° |
| 2026-05-06 15:56 | 50.57224 | 7.70894 | 34816 ft | 448 kts | 148° |
| 2026-05-06 15:56 | 50.52012 | 7.76272 | 34816 ft | 448 kts | 149° |
| 2026-05-06 15:57 | 50.46796 | 7.81629 | 34811 ft | 448 kts | 149° |
| 2026-05-06 15:57 | 50.41579 | 7.86975 | 34823 ft | 448 kts | 149° |
| 2026-05-06 15:58 | 50.36361 | 7.92304 | 34814 ft | 448 kts | 149° |
| 2026-05-06 15:58 | 50.31144 | 7.97620 | 34820 ft | 447 kts | 149° |
| 2026-05-06 15:59 | 50.25926 | 8.02926 | 34810 ft | 447 kts | 149° |
| 2026-05-06 15:59 | 50.20710 | 8.08214 | 34797 ft | 447 kts | 149° |
| 2026-05-06 16:00 | 50.15492 | 8.13464 | 34800 ft | 446 kts | 152° |
| 2026-05-06 16:00 | 50.09809 | 8.17042 | 34794 ft | 440 kts | 168° |
| 2026-05-06 16:01 | 50.03858 | 8.19252 | 34793 ft | 439 kts | 168° |
| 2026-05-06 16:01 | 49.97913 | 8.21447 | 34798 ft | 439 kts | 168° |
| 2026-05-06 16:02 | 49.91971 | 8.23690 | 34801 ft | 439 kts | 168° |
| 2026-05-06 16:02 | 49.86035 | 8.25949 | 34802 ft | 440 kts | 168° |
| 2026-05-06 16:03 | 49.80096 | 8.28210 | 34794 ft | 440 kts | 168° |
| 2026-05-06 16:03 | 49.74156 | 8.30467 | 34793 ft | 440 kts | 168° |
| 2026-05-06 16:04 | 49.68217 | 8.32716 | 34786 ft | 440 kts | 168° |
| 2026-05-06 16:04 | 49.62274 | 8.34960 | 34789 ft | 440 kts | 168° |
| 2026-05-06 16:05 | 49.56326 | 8.37200 | 34785 ft | 440 kts | 168° |
| 2026-05-06 16:05 | 49.50375 | 8.39437 | 34776 ft | 440 kts | 168° |
| 2026-05-06 16:06 | 49.44427 | 8.41665 | 34777 ft | 439 kts | 168° |
| 2026-05-06 16:06 | 49.38493 | 8.43882 | 34777 ft | 439 kts | 168° |
| 2026-05-06 16:07 | 49.32601 | 8.46079 | 34778 ft | 438 kts | 168° |
| 2026-05-06 16:07 | 49.26679 | 8.48284 | 34779 ft | 437 kts | 168° |
| 2026-05-06 16:08 | 49.20785 | 8.50470 | 34785 ft | 437 kts | 168° |
| 2026-05-06 16:08 | 49.14879 | 8.52656 | 34805 ft | 436 kts | 168° |
| 2026-05-06 16:09 | 49.08992 | 8.54832 | 34810 ft | 435 kts | 168° |
| 2026-05-06 16:09 | 49.03104 | 8.56996 | 34824 ft | 435 kts | 170° |
| 2026-05-06 16:10 | 48.97144 | 8.57568 | 34823 ft | 429 kts | 186° |
| 2026-05-06 16:10 | 48.91297 | 8.55954 | 34813 ft | 427 kts | 194° |
| 2026-05-06 16:11 | 48.85487 | 8.53993 | 34817 ft | 428 kts | 194° |
| 2026-05-06 16:11 | 48.79664 | 8.52060 | 34831 ft | 428 kts | 193° |
| 2026-05-06 16:12 | 48.73832 | 8.50168 | 34834 ft | 429 kts | 193° |
| 2026-05-06 16:12 | 48.67995 | 8.48292 | 34836 ft | 429 kts | 193° |
| 2026-05-06 16:13 | 48.62157 | 8.46423 | 34831 ft | 429 kts | 193° |
| 2026-05-06 16:13 | 48.56318 | 8.44558 | 34843 ft | 429 kts | 193° |
| 2026-05-06 16:14 | 48.50474 | 8.42694 | 34844 ft | 429 kts | 193° |
| 2026-05-06 16:14 | 48.44640 | 8.40838 | 34839 ft | 429 kts | 193° |
| 2026-05-06 16:15 | 48.38799 | 8.38984 | 34848 ft | 429 kts | 193° |
| 2026-05-06 16:15 | 48.32965 | 8.37135 | 34843 ft | 428 kts | 193° |
| 2026-05-06 16:16 | 48.27127 | 8.35291 | 34848 ft | 428 kts | 193° |
| 2026-05-06 16:16 | 48.21301 | 8.33454 | 34854 ft | 428 kts | 193° |
| 2026-05-06 16:17 | 48.15708 | 8.30769 | 34865 ft | 425 kts | 206° |
| 2026-05-06 16:17 | 48.10679 | 8.26143 | 34861 ft | 425 kts | 213° |
| 2026-05-06 16:18 | 48.05737 | 8.21299 | 34864 ft | 425 kts | 213° |
| 2026-05-06 16:18 | 48.00777 | 8.16485 | 34869 ft | 425 kts | 213° |
| 2026-05-06 16:19 | 47.95801 | 8.11701 | 34867 ft | 426 kts | 212° |
| 2026-05-06 16:19 | 47.90812 | 8.06929 | 34869 ft | 426 kts | 212° |
| 2026-05-06 16:20 | 47.85814 | 8.02159 | 34866 ft | 427 kts | 212° |
| 2026-05-06 16:20 | 47.83298 | 7.99762 | 34469 ft | 433 kts | 212° |
| 2026-05-06 16:20 | 47.80764 | 7.97350 | 33921 ft | 431 kts | 212° |
| 2026-05-06 16:21 | 47.78245 | 7.94955 | 33305 ft | 430 kts | 212° |
| 2026-05-06 16:21 | 47.75732 | 7.92567 | 32859 ft | 425 kts | 212° |
| 2026-05-06 16:21 | 47.73251 | 7.90214 | 32379 ft | 421 kts | 212° |
| 2026-05-06 16:21 | 47.70793 | 7.87886 | 31911 ft | 417 kts | 212° |
| 2026-05-06 16:22 | 47.68363 | 7.85587 | 31457 ft | 413 kts | 212° |
| 2026-05-06 16:22 | 47.65944 | 7.83298 | 30999 ft | 410 kts | 212° |
| 2026-05-06 16:22 | 47.63569 | 7.81055 | 30547 ft | 405 kts | 212° |
| 2026-05-06 16:22 | 47.61204 | 7.78823 | 30095 ft | 402 kts | 212° |
| 2026-05-06 16:23 | 47.58855 | 7.76610 | 29652 ft | 398 kts | 212° |
| 2026-05-06 16:23 | 47.56531 | 7.74422 | 29203 ft | 394 kts | 212° |
| 2026-05-06 16:23 | 47.54227 | 7.72256 | 28742 ft | 390 kts | 212° |
| 2026-05-06 16:23 | 47.51949 | 7.70116 | 28297 ft | 387 kts | 212° |
| 2026-05-06 16:24 | 47.49687 | 7.67994 | 27846 ft | 383 kts | 212° |
| 2026-05-06 16:24 | 47.47441 | 7.65889 | 27402 ft | 380 kts | 212° |
| 2026-05-06 16:24 | 47.45214 | 7.63800 | 26961 ft | 378 kts | 212° |
| 2026-05-06 16:24 | 47.43005 | 7.61735 | 26519 ft | 375 kts | 212° |
| 2026-05-06 16:25 | 47.40805 | 7.59681 | 26077 ft | 373 kts | 211° |
| 2026-05-06 16:25 | 47.38621 | 7.57643 | 25646 ft | 370 kts | 211° |
| 2026-05-06 16:25 | 47.36452 | 7.55620 | 25214 ft | 368 kts | 211° |
| 2026-05-06 16:25 | 47.34298 | 7.53613 | 24780 ft | 366 kts | 211° |
| 2026-05-06 16:26 | 47.32147 | 7.51611 | 24346 ft | 364 kts | 211° |
| 2026-05-06 16:26 | 47.30733 | 7.50296 | 24065 ft | 362 kts | 211° |
| 2026-05-06 16:26 | 47.28607 | 7.48321 | 23642 ft | 360 kts | 211° |
| 2026-05-06 16:26 | 47.26497 | 7.46360 | 23230 ft | 358 kts | 211° |
| 2026-05-06 16:27 | 47.24396 | 7.44411 | 22801 ft | 356 kts | 211° |
| 2026-05-06 16:27 | 47.22306 | 7.42473 | 22403 ft | 354 kts | 211° |
| 2026-05-06 16:27 | 47.20221 | 7.40543 | 21980 ft | 353 kts | 211° |
| 2026-05-06 16:27 | 47.18152 | 7.38625 | 21550 ft | 351 kts | 212° |
| 2026-05-06 16:28 | 47.16227 | 7.36420 | 21110 ft | 351 kts | 222° |
| 2026-05-06 16:28 | 47.14590 | 7.33727 | 20531 ft | 355 kts | 230° |
| 2026-05-06 16:28 | 47.13078 | 7.30876 | 20068 ft | 354 kts | 231° |
| 2026-05-06 16:28 | 47.11576 | 7.28032 | 19658 ft | 351 kts | 231° |
| 2026-05-06 16:29 | 47.10075 | 7.25214 | 19255 ft | 349 kts | 231° |
| 2026-05-06 16:29 | 47.08575 | 7.22424 | 18844 ft | 347 kts | 230° |
| 2026-05-06 16:29 | 47.07080 | 7.19663 | 18439 ft | 345 kts | 230° |
| 2026-05-06 16:29 | 47.05592 | 7.16919 | 18034 ft | 343 kts | 230° |
| 2026-05-06 16:30 | 47.04107 | 7.14196 | 17621 ft | 341 kts | 230° |
| 2026-05-06 16:30 | 47.03129 | 7.12408 | 17356 ft | 339 kts | 230° |
| 2026-05-06 16:30 | 47.01158 | 7.08810 | 16820 ft | 337 kts | 230° |
| 2026-05-06 16:30 | 46.99698 | 7.06144 | 16427 ft | 335 kts | 230° |
| 2026-05-06 16:31 | 46.98245 | 7.03493 | 16042 ft | 333 kts | 230° |
| 2026-05-06 16:31 | 46.96801 | 7.00858 | 15651 ft | 330 kts | 230° |
| 2026-05-06 16:31 | 46.95368 | 6.98247 | 15267 ft | 328 kts | 230° |
| 2026-05-06 16:31 | 46.93942 | 6.95652 | 14885 ft | 326 kts | 231° |
| 2026-05-06 16:32 | 46.92543 | 6.93110 | 14499 ft | 324 kts | 231° |
| 2026-05-06 16:32 | 46.90983 | 6.90708 | 14103 ft | 322 kts | 215° |
| 2026-05-06 16:32 | 46.89005 | 6.89215 | 13758 ft | 319 kts | 203° |
| 2026-05-06 16:32 | 46.86988 | 6.88008 | 13382 ft | 317 kts | 202° |
| 2026-05-06 16:33 | 46.84942 | 6.86814 | 13001 ft | 316 kts | 202° |
| 2026-05-06 16:33 | 46.82875 | 6.85604 | 12620 ft | 315 kts | 202° |
| 2026-05-06 16:33 | 46.80876 | 6.84424 | 12248 ft | 314 kts | 202° |
| 2026-05-06 16:34 | 46.76855 | 6.82026 | 11514 ft | 311 kts | 202° |
| 2026-05-06 16:34 | 46.74857 | 6.80830 | 11144 ft | 310 kts | 202° |
| 2026-05-06 16:34 | 46.72873 | 6.79642 | 10771 ft | 308 kts | 202° |
| 2026-05-06 16:34 | 46.70891 | 6.78455 | 10450 ft | 305 kts | 202° |
| 2026-05-06 16:35 | 46.68961 | 6.77300 | 10330 ft | 295 kts | 202° |
| 2026-05-06 16:35 | 46.67086 | 6.76179 | 10191 ft | 287 kts | 203° |
| 2026-05-06 16:35 | 46.65367 | 6.74804 | 10036 ft | 279 kts | 223° |
| 2026-05-06 16:35 | 46.64071 | 6.72776 | 9949 ft | 269 kts | 229° |
| 2026-05-06 16:36 | 46.62842 | 6.70752 | 9709 ft | 266 kts | 229° |
| 2026-05-06 16:36 | 46.61621 | 6.68742 | 9446 ft | 265 kts | 229° |
| 2026-05-06 16:36 | 46.60399 | 6.66740 | 9176 ft | 264 kts | 229° |
| 2026-05-06 16:36 | 46.59190 | 6.64763 | 8906 ft | 263 kts | 229° |
| 2026-05-06 16:37 | 46.57968 | 6.62773 | 8638 ft | 262 kts | 228° |
| 2026-05-06 16:37 | 46.56755 | 6.60803 | 8359 ft | 261 kts | 228° |
| 2026-05-06 16:37 | 46.55545 | 6.58838 | 8084 ft | 261 kts | 228° |
| 2026-05-06 16:37 | 46.54336 | 6.56879 | 7810 ft | 260 kts | 228° |
| 2026-05-06 16:38 | 46.53149 | 6.54957 | 7542 ft | 258 kts | 228° |
| 2026-05-06 16:38 | 46.51944 | 6.53003 | 7388 ft | 253 kts | 228° |
| 2026-05-06 16:38 | 46.50784 | 6.51125 | 7258 ft | 246 kts | 228° |
| 2026-05-06 16:38 | 46.49665 | 6.49318 | 7225 ft | 236 kts | 228° |
| 2026-05-06 16:39 | 46.48608 | 6.47556 | 7119 ft | 228 kts | 229° |
| 2026-05-06 16:39 | 46.47554 | 6.45850 | 7041 ft | 229 kts | 227° |
| 2026-05-06 16:39 | 46.46428 | 6.44130 | 6860 ft | 241 kts | 226° |
| 2026-05-06 16:39 | 46.45248 | 6.42380 | 6604 ft | 243 kts | 226° |
| 2026-05-06 16:40 | 46.44072 | 6.40652 | 6517 ft | 236 kts | 225° |
| 2026-05-06 16:40 | 46.42907 | 6.38946 | 6249 ft | 241 kts | 225° |
| 2026-05-06 16:40 | 46.41728 | 6.37219 | 5944 ft | 243 kts | 225° |
| 2026-05-06 16:40 | 46.40540 | 6.35479 | 5642 ft | 244 kts | 225° |
| 2026-05-06 16:41 | 46.39349 | 6.33732 | 5338 ft | 242 kts | 225° |
| 2026-05-06 16:41 | 46.38178 | 6.32013 | 4998 ft | 238 kts | 225° |
| 2026-05-06 16:41 | 46.37026 | 6.30323 | 4685 ft | 233 kts | 225° |
| 2026-05-06 16:41 | 46.35903 | 6.28675 | 4387 ft | 226 kts | 225° |
| 2026-05-06 16:42 | 46.34814 | 6.27075 | 4082 ft | 220 kts | 225° |
| 2026-05-06 16:42 | 46.33760 | 6.25527 | 3785 ft | 210 kts | 225° |
| 2026-05-06 16:42 | 46.32778 | 6.24086 | 3513 ft | 198 kts | 226° |
| 2026-05-06 16:42 | 46.31840 | 6.22707 | 3269 ft | 186 kts | 226° |
| 2026-05-06 16:43 | 46.30962 | 6.21418 | 3041 ft | 170 kts | 226° |
| 2026-05-06 16:43 | 46.30177 | 6.20263 | 2824 ft | 160 kts | 226° |
| 2026-05-06 16:43 | 46.29403 | 6.19123 | 2587 ft | 157 kts | 225° |
| 2026-05-06 16:43 | 46.28645 | 6.18018 | 2397 ft | 153 kts | 226° |
| 2026-05-06 16:44 | 46.27893 | 6.16906 | 2169 ft | 152 kts | 226° |
| 2026-05-06 16:44 | 46.27160 | 6.15838 | 1994 ft | 151 kts | 226° |
| 2026-05-06 16:44 | 46.26426 | 6.14747 | 1806 ft | 151 kts | 226° |
| 2026-05-06 16:44 | 46.25690 | 6.13663 | 1616 ft | 152 kts | 225° |
| 2026-05-06 16:45 | 46.24946 | 6.12572 | 1408 ft | 153 kts | 226° |
| 2026-05-06 16:45 | 46.24243 | 6.11538 | 1373 ft | 128 kts | 225° |
| 2026-05-06 16:45 | 46.23726 | 6.10777 | 1381 ft | 85 kts | 225° |
| 2026-05-06 16:45 | 46.23420 | 6.10326 | 1403 ft | 44 kts | 226° |
| 2026-05-06 16:46 | 46.23192 | 6.10114 | 1402 ft | 32 kts | 196° |
| 2026-05-06 16:46 | 46.23082 | 6.10120 | 1396 ft | 14 kts | 135° |
| 2026-05-06 16:46 | 46.23120 | 6.10225 | 1395 ft | 13 kts | 44° |
| 2026-05-06 16:46 | 46.23168 | 6.10306 | 1402 ft | 8 kts | 61° |
| 2026-05-06 16:47 | 46.23151 | 6.10372 | 1399 ft | 8 kts | 136° |
| 2026-05-06 16:47 | 46.23114 | 6.10424 | 1399 ft | 7 kts | 136° |
| 2026-05-06 16:47 | 46.23078 | 6.10474 | 1399 ft | 7 kts | 133° |
| 2026-05-06 16:47 | 46.23080 | 6.10535 | 1394 ft | 7 kts | 55° |
| 2026-05-06 16:48 | 46.23115 | 6.10584 | 1398 ft | 7 kts | 44° |
| 2026-05-06 16:48 | 46.23122 | 6.10637 | 1392 ft | 6 kts | 128° |
| 2026-05-06 16:48 | 46.23103 | 6.10664 | 1395 ft | 0 kts | 135° |